Time;durP1;ratioP1;P1;durP2;ratioP2;P2;SDS_P1;SDS_P2;PMS_P1;PMS_P2;Temp;Humidity;BMP_temperature;BMP_pressure;BME280_temperature;BME280_humidity;BME280_pressure;Samples;Min_cycle;Max_cycle;Signal;HPM_P1;HPM_P2
2021/08/18 00:13:05;;;;;;;7.50;3.97;;;;;;;;;;4902244;29;20064;-81
2021/08/18 00:56:45;;;;;;;7.70;3.60;;;;;;;;;;5189557;22;20051;-83
2021/08/18 00:59:56;;;;;;;7.75;4.10;;;;;;;;;;5063870;28;20516;-82
2021/08/18 01:02:46;;;;;;;;;;;;;;;;;;;;;
2021/08/18 01:47:05;;;;;;;8.15;4.25;;;;;;;;;;5051315;28;20079;-83
2021/08/18 02:09:40;;;;;;;9.35;4.50;;;;;;;;;;5111447;28;20059;-85
2021/08/18 02:12:07;;;;;;;8.95;4.85;;;;;;;;;;5114665;28;20051;-83
2021/08/18 02:14:34;;;;;;;9.70;4.90;;;;;;;;;;5115701;28;20168;-85
2021/08/18 02:17:01;;;;;;;10.27;5.75;;;;;;;;;;5114639;28;20485;-84
2021/08/18 02:19:31;;;;;;;7.93;4.43;;;;;;;;;;5115065;28;20096;-84
2021/08/18 02:22:06;;;;;;;9.13;4.70;;;;;;;;;;5114914;28;20504;-85
2021/08/18 02:24:33;;;;;;;8.18;4.70;;;;;;;;;;5114718;28;20092;-84
2021/08/18 02:27:01;;;;;;;7.78;4.30;;;;;;;;;;5114386;28;20572;-84
2021/08/18 02:29:31;;;;;;;9.32;4.82;;;;;;;;;;5112053;28;20469;-83
2021/08/18 02:31:58;;;;;;;8.68;4.30;;;;;;;;;;5114542;28;20054;-83
2021/08/18 02:34:27;;;;;;;11.77;4.50;;;;;;;;;;5114831;28;20047;-84
2021/08/18 02:36:55;;;;;;;9.55;4.93;;;;;;;;;;5137166;27;20031;-87
2021/08/18 02:39:22;;;;;;;9.50;5.10;;;;;;;;;;5133734;27;20044;-83
2021/08/18 02:41:48;;;;;;;9.77;4.70;;;;;;;;;;5113626;28;20546;-83
2021/08/18 02:44:16;;;;;;;9.48;4.88;;;;;;;;;;5112839;28;20051;-83
2021/08/18 02:49:56;;;;;;;8.07;4.80;;;;;;;;;;5069975;28;20044;-83
2021/08/18 02:52:35;;;;;;;;;;;;;;;;;;;;;
2021/08/18 02:55:04;;;;;;;10.05;5.40;;;;;;;;;;5007593;28;20149;-83
2021/08/18 02:57:42;;;;;;;9.85;5.30;;;;;;;;;;5008269;28;20105;-83
2021/08/18 03:00:24;;;;;;;10.57;5.60;;;;;;;;;;5010813;28;20049;-83
2021/08/18 03:02:52;;;;;;;10.13;5.10;;;;;;;;;;5016345;28;20395;-85
2021/08/18 03:05:21;;;;;;;11.10;6.07;;;;;;;;;;5113229;28;20062;-83
2021/08/18 03:07:53;;;;;;;10.35;5.35;;;;;;;;;;5113946;28;20138;-84
2021/08/18 03:10:20;;;;;;;9.52;5.22;;;;;;;;;;5114218;28;20071;-83
2021/08/18 03:13:08;;;;;;;10.90;5.82;;;;;;;;;;5113773;28;20044;-83
2021/08/18 03:19:10;;;;;;;9.63;5.32;;;;;;;;;;5108633;28;20054;-82
2021/08/18 03:21:51;;;;;;;9.73;5.10;;;;;;;;;;5084922;28;20492;-83
2021/08/18 03:24:22;;;;;;;10.75;5.25;;;;;;;;;;5117559;28;20058;-83
2021/08/18 03:27:02;;;;;;;10.60;5.40;;;;;;;;;;5117305;28;20043;-82
2021/08/18 03:29:38;;;;;;;11.52;5.57;;;;;;;;;;5117579;28;20131;-82
2021/08/18 03:37:58;;;;;;;13.00;6.53;;;;;;;;;;5114697;28;20055;-83
2021/08/18 03:43:30;;;;;;;11.77;6.55;;;;;;;;;;5074465;28;20067;-81
2021/08/18 03:46:04;;;;;;;12.02;6.93;;;;;;;;;;5117016;28;20052;-83
2021/08/18 03:48:46;;;;;;;11.68;6.05;;;;;;;;;;5117678;28;20044;-82
2021/08/18 03:51:30;;;;;;;13.70;6.88;;;;;;;;;;5118322;28;20043;-83
2021/08/18 04:00:08;;;;;;;10.65;5.60;;;;;;;;;;5075435;28;20056;-82
2021/08/18 04:02:38;;;;;;;12.98;6.35;;;;;;;;;;5074557;28;20051;-83
2021/08/18 04:05:07;;;;;;;;;;;;;;;;;;5130266;22;20183;-79
2021/08/18 04:07:34;;;;;;;10.50;5.85;;;;;;;;;;5119732;28;20368;-80
2021/08/18 04:10:01;;;;;;;12.20;6.22;;;;;;;;;;5121623;28;20039;-79
2021/08/18 04:12:28;;;;;;;12.25;6.13;;;;;;;;;;5129472;28;20047;-78
2021/08/18 04:14:55;;;;;;;11.27;6.25;;;;;;;;;;5122435;28;20112;-80
2021/08/18 04:17:22;;;;;;;12.77;6.50;;;;;;;;;;5119770;28;20039;-80
2021/08/18 04:19:49;;;;;;;12.15;6.65;;;;;;;;;;5119893;28;20047;-80
2021/08/18 04:22:18;;;;;;;10.88;6.63;;;;;;;;;;5122014;28;20044;-79
2021/08/18 04:24:45;;;;;;;12.50;6.28;;;;;;;;;;5124078;28;20051;-79
2021/08/18 04:27:12;;;;;;;11.68;6.25;;;;;;;;;;5123694;28;20496;-79
2021/08/18 04:29:38;;;;;;;11.90;6.68;;;;;;;;;;5122517;28;20079;-79
2021/08/18 04:32:06;;;;;;;13.48;7.55;;;;;;;;;;5123736;28;20047;-79
2021/08/18 04:34:33;;;;;;;11.23;6.13;;;;;;;;;;5120240;28;20043;-80
2021/08/18 04:37:00;;;;;;;13.65;6.43;;;;;;;;;;5119144;28;20474;-80
2021/08/18 04:39:28;;;;;;;11.40;6.30;;;;;;;;;;5119409;28;20039;-80
2021/08/18 04:41:54;;;;;;;15.40;7.18;;;;;;;;;;5119897;28;20199;-80
2021/08/18 04:44:21;;;;;;;14.32;6.80;;;;;;;;;;5119108;28;20040;-80
2021/08/18 04:46:48;;;;;;;12.57;6.10;;;;;;;;;;5118364;28;20122;-80
2021/08/18 04:49:15;;;;;;;14.48;6.30;;;;;;;;;;5118900;28;20485;-81
2021/08/18 04:51:41;;;;;;;13.73;7.53;;;;;;;;;;5119577;28;20094;-79
2021/08/18 04:54:08;;;;;;;11.98;7.03;;;;;;;;;;5119282;28;20051;-80
2021/08/18 04:56:36;;;;;;;11.15;6.45;;;;;;;;;;5118285;28;20085;-80
2021/08/18 04:59:03;;;;;;;12.50;5.97;;;;;;;;;;5118741;28;20073;-80
2021/08/18 05:01:29;;;;;;;13.90;6.38;;;;;;;;;;5115877;28;20077;-80
2021/08/18 05:03:56;;;;;;;13.02;6.45;;;;;;;;;;5098082;28;20051;-79
2021/08/18 05:06:23;;;;;;;13.73;6.68;;;;;;;;;;5098245;28;20044;-79
2021/08/18 05:08:50;;;;;;;10.85;6.43;;;;;;;;;;5100222;28;20048;-80
2021/08/18 05:11:16;;;;;;;11.75;7.05;;;;;;;;;;5098854;28;20048;-79
2021/08/18 05:13:44;;;;;;;13.68;7.10;;;;;;;;;;5116167;28;20092;-80
2021/08/18 05:16:11;;;;;;;11.88;6.78;;;;;;;;;;5118857;28;20106;-80
2021/08/18 05:18:38;;;;;;;13.15;6.68;;;;;;;;;;5119293;28;20052;-80
2021/08/18 05:21:05;;;;;;;11.90;6.80;;;;;;;;;;5118713;28;20051;-80
2021/08/18 05:23:32;;;;;;;12.23;6.45;;;;;;;;;;5119270;28;20075;-80
2021/08/18 05:25:58;;;;;;;11.65;6.75;;;;;;;;;;5119015;28;20047;-79
2021/08/18 05:28:25;;;;;;;11.82;7.18;;;;;;;;;;5123157;28;20056;-79
2021/08/18 05:30:53;;;;;;;12.27;7.18;;;;;;;;;;5118867;28;20043;-80
2021/08/18 05:33:20;;;;;;;12.52;6.68;;;;;;;;;;5118267;28;20047;-80
2021/08/18 05:35:47;;;;;;;11.90;6.65;;;;;;;;;;5118059;28;20051;-80
2021/08/18 05:38:14;;;;;;;14.65;6.82;;;;;;;;;;5118462;28;20039;-80
2021/08/18 05:40:40;;;;;;;13.13;6.88;;;;;;;;;;5118451;28;20040;-80
2021/08/18 05:43:07;;;;;;;11.95;7.07;;;;;;;;;;5118462;28;20498;-80
2021/08/18 05:45:34;;;;;;;12.85;6.90;;;;;;;;;;5117286;28;20085;-79
2021/08/18 05:48:02;;;;;;;14.43;7.57;;;;;;;;;;5118307;28;20043;-80
2021/08/18 05:50:29;;;;;;;12.75;6.68;;;;;;;;;;5117713;28;20048;-80
2021/08/18 05:52:55;;;;;;;11.40;6.88;;;;;;;;;;5118826;28;20040;-80
2021/08/18 05:55:22;;;;;;;13.50;7.32;;;;;;;;;;5118012;28;20043;-80
2021/08/18 05:57:51;;;;;;;14.55;7.63;;;;;;;;;;5119276;28;20047;-79
2021/08/18 06:00:18;;;;;;;12.40;7.13;;;;;;;;;;5120857;28;20051;-79
2021/08/18 06:02:44;;;;;;;13.50;7.35;;;;;;;;;;5106345;28;20093;-80
2021/08/18 06:05:13;;;;;;;13.18;7.00;;;;;;;;;;5097096;28;20048;-79
2021/08/18 06:07:40;;;;;;;14.05;7.05;;;;;;;;;;5097872;28;20101;-80
2021/08/18 06:10:08;;;;;;;14.48;6.97;;;;;;;;;;5097831;28;20066;-79
2021/08/18 06:12:35;;;;;;;12.80;7.30;;;;;;;;;;5097983;28;20044;-79
2021/08/18 06:15:01;;;;;;;16.27;7.95;;;;;;;;;;5100524;28;20052;-79
2021/08/18 06:17:28;;;;;;;15.63;7.07;;;;;;;;;;5101279;28;20121;-79
2021/08/18 06:19:55;;;;;;;14.43;7.68;;;;;;;;;;5101261;28;20481;-79
2021/08/18 06:22:23;;;;;;;14.80;7.90;;;;;;;;;;5099936;28;20070;-79
2021/08/18 06:24:51;;;;;;;17.67;7.97;;;;;;;;;;5099911;28;20048;-79
2021/08/18 06:27:19;;;;;;;16.23;8.20;;;;;;;;;;5099681;28;20492;-80
2021/08/18 06:29:46;;;;;;;13.75;7.03;;;;;;;;;;5097673;28;20044;-80
2021/08/18 06:32:13;;;;;;;14.50;7.88;;;;;;;;;;5099920;28;20485;-80
2021/08/18 06:34:40;;;;;;;15.18;8.55;;;;;;;;;;5097478;28;20056;-80
2021/08/18 06:37:07;;;;;;;15.23;8.20;;;;;;;;;;5099851;28;20105;-78
2021/08/18 06:39:35;;;;;;;15.55;8.35;;;;;;;;;;5098818;28;20062;-79
2021/08/18 06:42:03;;;;;;;17.10;8.90;;;;;;;;;;5098425;28;20188;-79
2021/08/18 06:44:29;;;;;;;15.30;8.13;;;;;;;;;;5097158;28;20048;-79
2021/08/18 06:46:56;;;;;;;15.35;8.43;;;;;;;;;;5096716;28;20390;-79
2021/08/18 06:49:23;;;;;;;15.25;9.05;;;;;;;;;;5097826;28;20040;-79
2021/08/18 06:51:50;;;;;;;19.10;9.35;;;;;;;;;;5101679;28;20047;-78
2021/08/18 06:54:17;;;;;;;16.17;8.52;;;;;;;;;;5105829;28;20113;-78
2021/08/18 06:56:45;;;;;;;15.85;9.57;;;;;;;;;;5104008;28;20073;-78
2021/08/18 06:59:12;;;;;;;18.15;8.82;;;;;;;;;;5104359;28;20044;-78
2021/08/18 07:01:39;;;;;;;18.48;11.63;;;;;;;;;;5104000;28;20229;-79
2021/08/18 07:04:06;;;;;;;19.40;9.23;;;;;;;;;;5112388;28;20059;-79
2021/08/18 07:06:33;;;;;;;20.25;10.52;;;;;;;;;;5120222;28;20042;-78
2021/08/18 07:09:00;;;;;;;16.98;10.48;;;;;;;;;;5118491;28;20056;-78
2021/08/18 07:11:30;;;;;;;14.10;8.40;;;;;;;;;;5120744;28;20028;-78
2021/08/18 07:13:59;;;;;;;18.00;10.40;;;;;;;;;;5120390;28;20040;-78
2021/08/18 07:16:27;;;;;;;17.30;10.18;;;;;;;;;;5118466;28;20043;-79
2021/08/18 07:18:54;;;;;;;17.48;10.15;;;;;;;;;;5107636;28;20092;-79
2021/08/18 07:21:21;;;;;;;16.83;9.73;;;;;;;;;;5095245;28;20052;-79
2021/08/18 07:23:48;;;;;;;17.23;9.40;;;;;;;;;;5095696;28;20040;-79
2021/08/18 07:26:15;;;;;;;15.73;9.95;;;;;;;;;;5097392;28;20102;-79
2021/08/18 07:28:42;;;;;;;20.73;10.13;;;;;;;;;;5099174;28;20052;-79
2021/08/18 07:31:11;;;;;;;19.02;10.70;;;;;;;;;;5095889;28;20040;-79
2021/08/18 07:33:38;;;;;;;21.15;11.43;;;;;;;;;;5096285;28;20043;-79
2021/08/18 07:36:05;;;;;;;18.55;10.18;;;;;;;;;;5096102;28;20052;-80
2021/08/18 07:38:31;;;;;;;18.40;10.70;;;;;;;;;;5097716;28;20048;-80
2021/08/18 07:40:58;;;;;;;17.08;10.10;;;;;;;;;;5097889;28;20052;-79
2021/08/18 07:43:25;;;;;;;18.40;10.18;;;;;;;;;;5098459;28;20079;-79
2021/08/18 07:45:53;;;;;;;18.55;10.15;;;;;;;;;;5097495;28;20074;-79
2021/08/18 07:48:21;;;;;;;17.08;10.07;;;;;;;;;;5099211;28;20408;-80
2021/08/18 07:50:47;;;;;;;21.02;9.95;;;;;;;;;;5101796;28;20067;-79
2021/08/18 07:53:14;;;;;;;17.25;9.23;;;;;;;;;;5109020;28;20070;-79
2021/08/18 07:55:41;;;;;;;20.70;10.63;;;;;;;;;;5101086;28;20056;-80
2021/08/18 07:58:08;;;;;;;20.45;10.55;;;;;;;;;;5099709;28;20047;-79
2021/08/18 08:00:38;;;;;;;16.95;9.88;;;;;;;;;;5100016;28;20047;-80
2021/08/18 08:03:05;;;;;;;17.48;9.40;;;;;;;;;;5102179;28;20127;-80
2021/08/18 08:05:33;;;;;;;17.23;10.77;;;;;;;;;;5100815;28;20047;-80
2021/08/18 08:07:59;;;;;;;17.20;10.30;;;;;;;;;;5098873;28;20048;-79
2021/08/18 08:10:26;;;;;;;18.27;9.95;;;;;;;;;;5099788;28;20480;-79
2021/08/18 08:12:53;;;;;;;20.60;14.05;;;;;;;;;;5107338;28;20700;-80
2021/08/18 08:15:20;;;;;;;17.58;10.52;;;;;;;;;;5118138;28;20348;-79
2021/08/18 08:17:47;;;;;;;16.33;10.15;;;;;;;;;;5118311;28;20048;-79
2021/08/18 08:20:14;;;;;;;17.70;9.63;;;;;;;;;;5119498;28;20044;-80
2021/08/18 08:22:42;;;;;;;17.48;9.48;;;;;;;;;;5118980;28;20047;-80
2021/08/18 08:25:10;;;;;;;17.70;10.32;;;;;;;;;;5119298;28;20062;-78
2021/08/18 08:27:37;;;;;;;16.92;9.82;;;;;;;;;;5122309;28;20164;-81
2021/08/18 08:30:04;;;;;;;17.58;10.77;;;;;;;;;;5123971;28;20054;-80
2021/08/18 08:32:31;;;;;;;15.00;9.35;;;;;;;;;;5121400;28;20725;-81
2021/08/18 08:34:57;;;;;;;15.27;8.70;;;;;;;;;;5118179;28;20427;-82
2021/08/18 08:37:24;;;;;;;19.48;10.52;;;;;;;;;;5119639;28;20105;-84
2021/08/18 08:39:52;;;;;;;19.13;8.90;;;;;;;;;;5117971;28;20076;-79
2021/08/18 08:42:20;;;;;;;17.25;9.73;;;;;;;;;;5122758;28;20046;-80
2021/08/18 08:44:51;;;;;;;17.40;9.98;;;;;;;;;;5118479;28;20073;-81
2021/08/18 08:47:18;;;;;;;15.88;9.57;;;;;;;;;;5118991;28;20044;-80
2021/08/18 08:49:45;;;;;;;15.32;9.13;;;;;;;;;;5118840;28;20051;-81
2021/08/18 08:52:15;;;;;;;15.02;9.02;;;;;;;;;;5117351;28;20066;-81
2021/08/18 08:54:43;;;;;;;18.30;10.02;;;;;;;;;;5119722;28;20047;-83
2021/08/18 08:57:12;;;;;;;14.27;9.20;;;;;;;;;;5117468;28;20051;-80
2021/08/18 08:59:39;;;;;;;18.08;11.60;;;;;;;;;;5119631;28;20052;-79
2021/08/18 09:02:07;;;;;;;15.68;9.50;;;;;;;;;;5125862;28;20066;-80
2021/08/18 09:04:35;;;;;;;14.40;9.00;;;;;;;;;;5121025;28;20124;-82
2021/08/18 09:07:07;;;;;;;16.92;10.30;;;;;;;;;;5119920;28;20044;-81
2021/08/18 09:09:34;;;;;;;16.20;9.05;;;;;;;;;;5116721;28;20077;-78
2021/08/18 09:12:06;;;;;;;16.38;9.10;;;;;;;;;;5115543;28;20576;-80
2021/08/18 09:14:35;;;;;;;16.38;9.25;;;;;;;;;;5097112;28;20052;-81
2021/08/18 09:17:02;;;;;;;16.35;8.98;;;;;;;;;;5096250;28;20070;-80
2021/08/18 09:19:30;;;;;;;15.85;9.68;;;;;;;;;;5097579;28;20074;-81
2021/08/18 09:22:06;;;;;;;13.90;7.97;;;;;;;;;;5094410;28;20102;-81
2021/08/18 09:24:34;;;;;;;12.95;8.25;;;;;;;;;;5107542;28;20040;-81
2021/08/18 09:27:06;;;;;;;13.55;8.07;;;;;;;;;;5098783;28;20070;-81
2021/08/18 09:29:44;;;;;;;15.95;9.40;;;;;;;;;;5075295;28;20064;-81
2021/08/18 09:32:23;;;;;;;15.25;8.15;;;;;;;;;;5075614;28;20051;-81
2021/08/18 09:34:55;;;;;;;13.25;8.13;;;;;;;;;;5074880;28;20509;-80
2021/08/18 09:37:22;;;;;;;14.32;7.57;;;;;;;;;;5075146;28;20056;-81
2021/08/18 09:39:49;;;;;;;15.50;8.50;;;;;;;;;;5077940;28;20417;-81
2021/08/18 09:42:30;;;;;;;14.30;7.68;;;;;;;;;;5076547;28;20467;-81
2021/08/18 09:45:15;;;;;;;11.98;7.32;;;;;;;;;;5080108;28;20049;-81
2021/08/18 09:47:54;;;;;;;14.88;8.52;;;;;;;;;;5076022;28;20049;-81
2021/08/18 09:50:22;;;;;;;14.03;7.93;;;;;;;;;;5077318;28;20432;-81
2021/08/18 09:52:50;;;;;;;12.57;8.10;;;;;;;;;;5094253;28;20354;-81
2021/08/18 09:55:21;;;;;;;11.80;7.22;;;;;;;;;;5093358;28;20048;-81
2021/08/18 09:57:51;;;;;;;13.32;7.63;;;;;;;;;;5094305;28;20048;-80
2021/08/18 10:00:20;;;;;;;13.30;8.07;;;;;;;;;;5094583;28;20044;-81
2021/08/18 10:02:47;;;;;;;13.27;7.53;;;;;;;;;;5082224;28;20048;-81
2021/08/18 10:05:13;;;;;;;13.93;7.43;;;;;;;;;;5078485;28;20050;-80
2021/08/18 10:07:41;;;;;;;14.13;9.38;;;;;;;;;;5083662;28;20447;-81
2021/08/18 10:10:20;;;;;;;13.07;8.05;;;;;;;;;;5144805;22;20059;-86
2021/08/18 10:12:47;;;;;;;11.90;7.85;;;;;;;;;;5099148;28;20028;-85
2021/08/18 10:15:52;;;;;;;10.30;6.63;;;;;;;;;;5077904;28;20041;-84
2021/08/18 10:18:46;;;;;;;13.18;6.93;;;;;;;;;;5048515;28;20048;-82
2021/08/18 10:24:34;;;;;;;11.20;6.95;;;;;;;;;;5109682;28;20056;-84
2021/08/18 10:27:37;;;;;;;11.38;7.38;;;;;;;;;;5116242;28;20035;-84
2021/08/18 10:53:00;;;;;;;11.68;6.65;;;;;;;;;;4960153;28;20077;-90
2021/08/18 10:55:32;;;;;;;11.50;7.38;;;;;;;;;;5070507;28;20062;-86
2021/08/18 10:58:01;;;;;;;11.63;6.70;;;;;;;;;;5099973;28;20052;-84
2021/08/18 11:08:10;;;;;;;10.50;5.85;;;;;;;;;;5040172;28;20068;-83
2021/08/18 11:11:33;;;;;;;12.43;7.45;;;;;;;;;;5098535;28;20047;-83
2021/08/18 11:14:16;;;;;;;13.05;6.95;;;;;;;;;;5097287;28;20058;-83
2021/08/18 11:16:56;;;;;;;13.50;8.52;;;;;;;;;;5099630;28;20052;-84
2021/08/18 11:19:25;;;;;;;10.93;7.15;;;;;;;;;;5098134;28;20044;-84
2021/08/18 11:21:55;;;;;;;12.07;7.38;;;;;;;;;;5099170;28;20653;-84
2021/08/18 11:24:24;;;;;;;12.67;7.30;;;;;;;;;;5119511;28;20032;-86
2021/08/18 11:26:54;;;;;;;11.48;7.07;;;;;;;;;;5115663;28;20346;-83
2021/08/18 11:29:23;;;;;;;10.90;6.22;;;;;;;;;;5095219;28;20040;-83
2021/08/18 11:31:53;;;;;;;12.85;6.55;;;;;;;;;;5094597;28;20090;-83
2021/08/18 11:34:25;;;;;;;11.18;6.85;;;;;;;;;;5096231;28;20125;-84
2021/08/18 11:37:00;;;;;;;9.13;5.70;;;;;;;;;;5096211;28;20101;-83
2021/08/18 11:39:34;;;;;;;10.45;6.40;;;;;;;;;;5095819;28;20079;-83
2021/08/18 11:42:11;;;;;;;11.25;6.70;;;;;;;;;;5097557;28;20101;-85
2021/08/18 11:44:39;;;;;;;10.45;6.35;;;;;;;;;;5099055;28;20070;-84
2021/08/18 11:47:23;;;;;;;11.32;6.45;;;;;;;;;;5101862;28;20476;-84
2021/08/18 11:50:04;;;;;;;11.38;6.45;;;;;;;;;;5107743;28;20088;-83
2021/08/18 11:52:52;;;;;;;11.82;7.00;;;;;;;;;;5107168;28;20419;-86
2021/08/18 11:55:29;;;;;;;9.77;5.55;;;;;;;;;;5102577;28;20052;-83
2021/08/18 11:58:03;;;;;;;8.68;5.40;;;;;;;;;;5104838;28;20134;-83
2021/08/18 12:00:35;;;;;;;10.00;5.57;;;;;;;;;;5104377;28;20048;-84
2021/08/18 12:03:21;;;;;;;10.07;5.47;;;;;;;;;;5100795;28;20066;-84
2021/08/18 12:06:10;;;;;;;12.02;6.70;;;;;;;;;;5100188;28;20048;-85
2021/08/18 12:08:48;;;;;;;10.43;5.88;;;;;;;;;;5097153;28;20059;-84
2021/08/18 12:11:37;;;;;;;8.52;5.05;;;;;;;;;;5096930;28;20052;-83
2021/08/18 12:14:15;;;;;;;9.63;5.30;;;;;;;;;;5097327;28;20056;-83
2021/08/18 12:16:58;;;;;;;9.40;4.78;;;;;;;;;;5096374;28;20091;-84
2021/08/18 12:19:36;;;;;;;8.82;4.93;;;;;;;;;;5096616;28;20048;-85
2021/08/18 12:22:36;;;;;;;10.95;6.50;;;;;;;;;;5096317;28;20592;-84
2021/08/18 12:25:22;;;;;;;7.68;4.43;;;;;;;;;;5097617;28;20508;-84
2021/08/18 12:28:11;;;;;;;9.40;4.55;;;;;;;;;;5096885;28;20044;-84
2021/08/18 12:34:41;;;;;;;8.68;4.85;;;;;;;;;;5016867;28;20061;-85
2021/08/18 12:37:44;;;;;;;8.80;4.65;;;;;;;;;;5080319;28;20048;-85
2021/08/18 12:40:41;;;;;;;7.60;4.10;;;;;;;;;;5098291;28;20412;-85
2021/08/18 12:43:53;;;;;;;;;;;;;;;;;;;;;
2021/08/18 12:46:53;;;;;;;7.68;4.60;;;;;;;;;;5096642;28;20400;-83
2021/08/18 12:49:36;;;;;;;7.78;4.72;;;;;;;;;;5092117;28;20063;-84
2021/08/18 12:52:32;;;;;;;7.68;4.38;;;;;;;;;;5098701;28;20055;-84
2021/08/18 12:55:09;;;;;;;9.05;4.82;;;;;;;;;;5099983;28;20483;-82
2021/08/18 12:57:45;;;;;;;7.10;4.30;;;;;;;;;;5104577;28;20071;-83
2021/08/18 13:00:42;;;;;;;9.85;5.07;;;;;;;;;;5105173;28;20143;-83
2021/08/18 13:03:12;;;;;;;8.00;4.82;;;;;;;;;;5093073;28;20048;-84
2021/08/18 13:05:39;;;;;;;7.43;4.30;;;;;;;;;;5096225;28;20044;-83
2021/08/18 13:08:08;;;;;;;7.95;4.65;;;;;;;;;;5096646;28;20040;-84
2021/08/18 13:10:48;;;;;;;8.07;4.78;;;;;;;;;;5097550;28;20052;-83
2021/08/18 13:13:18;;;;;;;8.68;4.63;;;;;;;;;;5099814;28;20109;-84
2021/08/18 13:15:48;;;;;;;;;;;;;;;;;;5107003;28;20465;-84
2021/08/18 13:18:20;;;;;;;8.40;5.28;;;;;;;;;;5099380;28;19920;-84
2021/08/18 13:21:11;;;;;;;9.05;4.47;;;;;;;;;;5098364;28;20040;-82
2021/08/18 13:23:41;;;;;;;6.85;3.97;;;;;;;;;;5096196;28;20052;-82
2021/08/18 13:26:23;;;;;;;7.53;4.18;;;;;;;;;;5096145;28;20071;-82
2021/08/18 13:28:57;;;;;;;7.55;4.03;;;;;;;;;;5107745;28;20063;-82
2021/08/18 13:31:29;;;;;;;8.85;4.85;;;;;;;;;;5116004;28;20066;-82
2021/08/18 13:34:06;;;;;;;7.88;5.50;;;;;;;;;;5115649;28;20028;-82
2021/08/18 13:36:39;;;;;;;7.57;4.65;;;;;;;;;;5117313;28;20035;-82
2021/08/18 13:39:06;;;;;;;8.00;4.75;;;;;;;;;;5116860;28;20035;-82
2021/08/18 13:41:39;;;;;;;7.72;4.53;;;;;;;;;;5117975;28;20036;-82
2021/08/18 13:44:09;;;;;;;7.97;4.03;;;;;;;;;;5119015;28;20035;-82
2021/08/18 13:46:38;;;;;;;16.27;13.75;;;;;;;;;;5118706;28;20032;-82
2021/08/18 13:49:17;;;;;;;10.70;5.43;;;;;;;;;;5119605;28;20040;-82
2021/08/18 13:51:44;;;;;;;7.35;4.03;;;;;;;;;;5118689;28;20032;-83
2021/08/18 13:54:12;;;;;;;7.78;5.00;;;;;;;;;;5117737;28;20051;-83
2021/08/18 13:56:40;;;;;;;7.38;4.75;;;;;;;;;;5117127;28;20028;-82
2021/08/18 13:59:08;;;;;;;8.60;5.20;;;;;;;;;;5117864;28;20099;-82
2021/08/18 14:01:37;;;;;;;7.60;4.72;;;;;;;;;;5121823;28;20031;-84
2021/08/18 14:04:06;;;;;;;7.45;5.13;;;;;;;;;;5138326;28;20081;-86
2021/08/18 14:06:39;;;;;;;9.37;4.20;;;;;;;;;;5138623;28;20050;-84
2021/08/18 14:09:11;;;;;;;6.93;3.55;;;;;;;;;;5138817;28;20095;-83
2021/08/18 14:11:46;;;;;;;6.57;3.70;;;;;;;;;;5138091;28;20019;-84
2021/08/18 14:14:14;;;;;;;6.70;3.95;;;;;;;;;;5138651;28;20095;-85
2021/08/18 14:16:46;;;;;;;6.97;4.25;;;;;;;;;;5138390;28;20050;-85
2021/08/18 14:19:19;;;;;;;6.57;3.38;;;;;;;;;;5138220;28;20027;-84
2021/08/18 14:21:46;;;;;;;6.68;4.20;;;;;;;;;;5136927;28;20039;-82
2021/08/18 14:24:13;;;;;;;8.55;4.13;;;;;;;;;;5137059;28;20035;-84
2021/08/18 14:26:40;;;;;;;6.13;3.92;;;;;;;;;;5136804;28;20043;-83
2021/08/18 14:29:06;;;;;;;6.03;3.42;;;;;;;;;;5136812;28;20051;-83
2021/08/18 14:31:33;;;;;;;6.68;3.72;;;;;;;;;;5130564;28;20096;-82
2021/08/18 14:34:01;;;;;;;6.93;3.80;;;;;;;;;;5116674;28;20111;-83
2021/08/18 14:36:28;;;;;;;6.30;3.55;;;;;;;;;;5116536;28;20048;-83
2021/08/18 14:38:55;;;;;;;6.38;3.47;;;;;;;;;;5115318;28;20123;-83
2021/08/18 14:41:22;;;;;;;8.82;4.53;;;;;;;;;;5114798;28;20043;-82
2021/08/18 14:43:49;;;;;;;8.00;4.03;;;;;;;;;;5114588;28;20391;-85
2021/08/18 14:46:19;;;;;;;7.82;3.67;;;;;;;;;;5115223;28;20054;-83
2021/08/18 14:48:46;;;;;;;6.35;4.10;;;;;;;;;;5119334;28;20040;-83
2021/08/18 14:51:14;;;;;;;6.47;3.65;;;;;;;;;;5117385;28;20047;-83
2021/08/18 14:53:41;;;;;;;5.78;3.33;;;;;;;;;;5115713;28;20738;-83
2021/08/18 14:56:08;;;;;;;6.63;3.50;;;;;;;;;;5114240;28;20101;-84
2021/08/18 14:58:34;;;;;;;5.53;3.10;;;;;;;;;;5114221;28;20096;-82
2021/08/18 15:01:04;;;;;;;6.28;3.63;;;;;;;;;;5114703;28;20051;-82
2021/08/18 15:03:31;;;;;;;6.50;3.80;;;;;;;;;;5115448;28;20047;-82
2021/08/18 15:05:58;;;;;;;6.30;3.60;;;;;;;;;;5113952;28;20047;-82
2021/08/18 15:08:26;;;;;;;5.47;2.83;;;;;;;;;;5113935;28;20096;-83
2021/08/18 15:10:53;;;;;;;5.75;3.55;;;;;;;;;;5114867;28;20040;-82
2021/08/18 15:13:19;;;;;;;9.93;7.07;;;;;;;;;;5116485;28;20100;-81
2021/08/18 15:15:46;;;;;;;8.10;5.45;;;;;;;;;;5116743;28;20047;-82
2021/08/18 15:18:13;;;;;;;6.03;3.63;;;;;;;;;;5086256;28;20110;-84
2021/08/18 15:20:40;;;;;;;6.20;3.47;;;;;;;;;;5081086;28;20044;-83
2021/08/18 15:23:07;;;;;;;6.60;3.60;;;;;;;;;;5077007;28;20048;-82
2021/08/18 15:25:36;;;;;;;6.07;3.38;;;;;;;;;;5077591;28;20048;-82
2021/08/18 15:28:02;;;;;;;6.63;2.95;;;;;;;;;;5086870;28;20097;-82
2021/08/18 15:30:30;;;;;;;5.03;3.33;;;;;;;;;;5084568;28;20513;-83
2021/08/18 15:32:57;;;;;;;7.03;3.25;;;;;;;;;;5079779;28;20068;-84
2021/08/18 15:35:25;;;;;;;9.35;3.17;;;;;;;;;;5082515;28;20048;-82
2021/08/18 15:37:53;;;;;;;6.00;3.20;;;;;;;;;;5085971;28;20056;-82
2021/08/18 15:40:20;;;;;;;6.32;3.00;;;;;;;;;;5095081;28;20196;-82
2021/08/18 15:42:50;;;;;;;6.30;3.00;;;;;;;;;;5097310;28;20052;-82
2021/08/18 15:45:16;;;;;;;5.50;3.23;;;;;;;;;;5102914;28;20036;-83
2021/08/18 15:47:44;;;;;;;6.65;3.00;;;;;;;;;;5099552;28;20516;-83
2021/08/18 15:50:12;;;;;;;5.65;3.05;;;;;;;;;;5077286;28;20056;-81
2021/08/18 15:52:39;;;;;;;5.85;3.25;;;;;;;;;;5080636;28;20058;-82
2021/08/18 15:55:07;;;;;;;4.63;2.72;;;;;;;;;;5083596;28;20052;-82
2021/08/18 15:57:34;;;;;;;4.90;2.58;;;;;;;;;;5087365;28;20044;-82
2021/08/18 16:00:03;;;;;;;5.40;2.50;;;;;;;;;;5101517;28;20048;-82
2021/08/18 16:02:30;;;;;;;4.75;2.53;;;;;;;;;;5097743;28;20044;-83
2021/08/18 16:04:57;;;;;;;5.22;2.60;;;;;;;;;;5100189;28;20052;-83
2021/08/18 16:07:24;;;;;;;4.38;2.53;;;;;;;;;;5098207;28;20040;-82
2021/08/18 16:09:50;;;;;;;4.78;2.60;;;;;;;;;;5096116;28;20105;-82
2021/08/18 16:12:17;;;;;;;5.25;2.92;;;;;;;;;;5100297;28;20040;-83
2021/08/18 16:14:44;;;;;;;4.18;2.42;;;;;;;;;;5116004;28;20052;-83
2021/08/18 16:17:12;;;;;;;5.18;2.42;;;;;;;;;;5119057;28;20043;-83
2021/08/18 16:19:39;;;;;;;4.28;2.42;;;;;;;;;;5119437;28;20036;-86
2021/08/18 16:22:06;;;;;;;5.55;3.90;;;;;;;;;;5116789;28;20044;-84
2021/08/18 16:24:32;;;;;;;5.10;3.00;;;;;;;;;;5117965;28;20065;-84
2021/08/18 16:26:59;;;;;;;6.35;2.97;;;;;;;;;;5103441;28;20048;-85
2021/08/18 16:29:26;;;;;;;6.35;2.90;;;;;;;;;;5100783;28;20044;-84
2021/08/18 16:31:53;;;;;;;6.22;3.20;;;;;;;;;;5099421;28;20048;-84
2021/08/18 16:34:21;;;;;;;6.75;4.07;;;;;;;;;;5099432;28;20467;-83
2021/08/18 16:36:49;;;;;;;6.53;3.70;;;;;;;;;;5098812;28;20055;-83
2021/08/18 16:39:16;;;;;;;5.00;2.72;;;;;;;;;;5098442;28;20052;-86
2021/08/18 16:41:43;;;;;;;5.25;3.00;;;;;;;;;;5098845;28;20052;-85
2021/08/18 16:44:10;;;;;;;4.78;2.78;;;;;;;;;;5097906;28;20078;-85
2021/08/18 16:46:40;;;;;;;4.80;2.65;;;;;;;;;;5102514;28;20086;-83
2021/08/18 16:49:07;;;;;;;5.88;2.83;;;;;;;;;;5102298;28;20496;-84
2021/08/18 16:51:35;;;;;;;6.25;3.08;;;;;;;;;;5100745;28;20048;-84
2021/08/18 16:54:02;;;;;;;6.32;2.85;;;;;;;;;;5102788;28;20115;-83
2021/08/18 16:56:34;;;;;;;5.18;3.22;;;;;;;;;;5102825;28;20485;-84
2021/08/18 16:59:01;;;;;;;5.53;2.90;;;;;;;;;;5097783;28;20105;-85
2021/08/18 17:01:28;;;;;;;5.53;3.10;;;;;;;;;;5097925;28;20052;-85
2021/08/18 17:03:54;;;;;;;4.45;2.80;;;;;;;;;;5098855;28;20048;-85
2021/08/18 17:06:21;;;;;;;5.97;2.85;;;;;;;;;;5100690;28;20052;-84
2021/08/18 17:08:50;;;;;;;6.35;3.70;;;;;;;;;;5098986;28;20044;-85
2021/08/18 17:11:16;;;;;;;5.07;2.92;;;;;;;;;;5100300;28;20090;-84
2021/08/18 17:13:43;;;;;;;5.10;3.03;;;;;;;;;;5098835;28;20048;-83
2021/08/18 17:16:10;;;;;;;6.50;3.45;;;;;;;;;;5097757;28;20105;-83
2021/08/18 17:18:39;;;;;;;6.22;3.22;;;;;;;;;;5098861;28;20044;-85
2021/08/18 17:21:07;;;;;;;6.57;3.42;;;;;;;;;;5097617;28;20440;-84
2021/08/18 17:23:35;;;;;;;10.07;7.97;;;;;;;;;;5097837;28;20063;-84
2021/08/18 17:26:06;;;;;;;7.80;4.38;;;;;;;;;;5099824;28;20044;-85
2021/08/18 17:28:33;;;;;;;7.60;4.10;;;;;;;;;;5102348;28;20459;-85
2021/08/18 17:31:00;;;;;;;5.18;2.95;;;;;;;;;;5097331;28;20113;-85
2021/08/18 17:33:27;;;;;;;5.50;3.15;;;;;;;;;;5096937;28;20047;-83
2021/08/18 17:35:54;;;;;;;7.65;3.47;;;;;;;;;;5096540;28;20074;-83
2021/08/18 17:38:21;;;;;;;6.13;3.63;;;;;;;;;;5102239;28;20056;-84
2021/08/18 17:40:48;;;;;;;5.40;3.20;;;;;;;;;;5097723;28;20044;-82
2021/08/18 17:43:17;;;;;;;6.53;3.38;;;;;;;;;;5098009;28;20048;-83
2021/08/18 17:45:47;;;;;;;6.80;4.05;;;;;;;;;;5098299;28;20397;-84
2021/08/18 17:48:14;;;;;;;5.60;3.60;;;;;;;;;;5097009;28;20485;-84
2021/08/18 17:50:41;;;;;;;6.22;3.42;;;;;;;;;;5097999;28;20044;-84
2021/08/18 17:53:08;;;;;;;6.05;3.58;;;;;;;;;;5097343;28;20044;-83